createdAt,value
2023-04-02T00:00:59.806Z,37.90
2023-04-02T00:04:09.236Z,36.53
2023-04-02T00:06:45.444Z,40.07
2023-04-02T00:09:38.926Z,41.93
2023-04-02T00:12:17.931Z,42.40
2023-04-02T00:14:53.570Z,39.77
2023-04-02T00:17:25.793Z,40.40
2023-04-02T00:19:59.991Z,38.70
2023-04-02T00:22:32.272Z,43.30
2023-04-02T00:25:04.326Z,46.00
2023-04-02T00:27:33.781Z,40.63
2023-04-02T00:30:04.876Z,40.93
2023-04-02T00:32:35.352Z,39.47
2023-04-02T00:35:12.217Z,35.77
2023-04-02T00:37:42.429Z,38.93
2023-04-02T00:40:18.848Z,36.93
2023-04-02T00:42:50.952Z,43.10
2023-04-02T00:45:26.363Z,38.30
2023-04-02T00:47:55.573Z,40.00
2023-04-02T00:50:33.691Z,44.63
2023-04-02T00:53:08.659Z,37.17
2023-04-02T00:55:41.060Z,42.00
2023-04-02T00:58:21.074Z,42.27
2023-04-02T01:00:52.645Z,42.63
2023-04-02T01:03:37.028Z,40.17
2023-04-02T01:06:12.204Z,38.53
2023-04-02T01:09:04.080Z,39.00
2023-04-02T01:11:47.400Z,37.90
2023-04-02T01:14:27.071Z,37.00
2023-04-02T01:17:02.167Z,31.70
2023-04-02T01:19:55.270Z,35.07
2023-04-02T01:22:35.473Z,32.57
2023-04-02T01:25:06.889Z,32.63
2023-04-02T01:27:42.703Z,28.23
2023-04-02T01:30:16.347Z,28.83
2023-04-02T01:32:45.962Z,27.23
2023-04-02T01:35:15.524Z,23.40
2023-04-02T01:37:52.325Z,27.77
2023-04-02T01:40:36.492Z,26.77
2023-04-02T01:43:19.240Z,27.57
2023-04-02T01:45:51.700Z,29.50
2023-04-02T01:48:25.053Z,28.83
2023-04-02T01:50:57.194Z,29.70
2023-04-02T01:53:31.064Z,30.27
2023-04-02T01:56:03.326Z,34.90
2023-04-02T01:58:34.098Z,30.20
2023-04-02T02:01:10.278Z,30.83
2023-04-02T02:03:42.718Z,31.87
2023-04-02T02:06:16.566Z,34.43
2023-04-02T02:08:50.539Z,34.07
2023-04-02T02:11:22.276Z,25.57
2023-04-02T02:13:56.807Z,31.47
2023-04-02T02:16:28.968Z,31.07
2023-04-02T02:19:02.500Z,29.80
2023-04-02T02:21:43.496Z,30.70
2023-04-02T02:24:21.546Z,34.17
2023-04-02T02:26:57.737Z,30.77
2023-04-02T02:29:30.024Z,33.30
2023-04-02T02:32:02.711Z,29.00
2023-04-02T02:34:38.922Z,29.57
2023-04-02T02:37:12.531Z,29.97
2023-04-02T02:39:44.947Z,25.57
2023-04-02T02:42:20.173Z,28.00
2023-04-02T02:44:52.343Z,26.83
2023-04-02T02:47:28.710Z,23.97
2023-04-02T02:50:02.117Z,24.33
2023-04-02T02:52:34.777Z,24.37
2023-04-02T02:55:12.835Z,19.50
2023-04-02T02:57:57.241Z,19.47
2023-04-02T03:00:29.449Z,24.77
2023-04-02T03:03:08.075Z,19.73
2023-04-02T03:05:37.752Z,19.33
2023-04-02T03:08:20.169Z,16.30
2023-04-02T03:10:55.899Z,15.53
2023-04-02T03:13:29.809Z,15.80
2023-04-02T03:16:04.091Z,15.90
2023-04-02T03:18:47.663Z,15.13
2023-04-02T03:21:24.566Z,13.10
2023-04-02T03:23:57.855Z,14.13
2023-04-02T03:26:33.395Z,12.47
2023-04-02T03:29:07.497Z,15.10
2023-04-02T03:31:42.102Z,14.27
2023-04-02T03:34:19.128Z,14.13
2023-04-02T03:36:58.572Z,15.93
2023-04-02T03:39:35.511Z,14.20
2023-04-02T03:42:10.873Z,16.03
2023-04-02T03:44:48.603Z,13.60
2023-04-02T03:47:28.574Z,12.67
2023-04-02T03:50:03.876Z,10.07
2023-04-02T03:52:35.671Z,9.90
2023-04-02T03:55:16.210Z,11.50
2023-04-02T03:57:54.820Z,11.73
2023-04-02T04:00:33.868Z,11.00
2023-04-02T04:03:12.466Z,11.70
2023-04-02T04:05:50.618Z,11.03
2023-04-02T04:08:24.038Z,12.03
2023-04-02T04:10:55.176Z,14.07
2023-04-02T04:13:45.359Z,14.80
2023-04-02T04:16:19.843Z,13.43
2023-04-02T04:18:57.779Z,12.43
2023-04-02T04:21:38.127Z,12.07
2023-04-02T04:24:31.177Z,15.47
2023-04-02T04:27:10.463Z,14.00
2023-04-02T04:29:51.988Z,16.10
2023-04-02T04:32:35.511Z,16.03
2023-04-02T04:35:27.343Z,16.40
2023-04-02T04:38:06.318Z,16.57
2023-04-02T04:40:39.096Z,14.33
2023-04-02T04:43:21.399Z,18.90
2023-04-02T04:45:56.354Z,14.97
2023-04-02T04:48:31.929Z,19.43
2023-04-02T04:51:06.573Z,18.80
2023-04-02T04:53:50.910Z,19.93
2023-04-02T04:56:26.295Z,25.70
2023-04-02T04:59:07.716Z,24.37
2023-04-02T05:01:42.681Z,26.53
2023-04-02T05:04:18.549Z,26.87
2023-04-02T05:06:56.102Z,29.83
2023-04-02T05:09:35.150Z,31.93
2023-04-02T05:12:14.238Z,37.27
2023-04-02T05:14:50.983Z,39.20
2023-04-02T05:17:25.371Z,36.87
2023-04-02T05:20:00.781Z,37.10
2023-04-02T05:22:39.535Z,35.73
2023-04-02T05:25:19.035Z,29.20
2023-04-02T05:27:53.098Z,27.03
2023-04-02T05:30:49.936Z,26.23
2023-04-02T05:33:28.817Z,30.40
2023-04-02T05:36:04.758Z,25.07
2023-04-02T05:38:46.920Z,28.93
2023-04-02T05:41:28.243Z,31.10
2023-04-02T05:44:07.348Z,31.03
2023-04-02T05:46:39.354Z,30.00
2023-04-02T05:49:15.765Z,28.27
2023-04-02T05:51:50.766Z,23.70
2023-04-02T05:54:26.809Z,24.83
2023-04-02T05:57:07.228Z,25.70
2023-04-02T05:59:41.063Z,23.57
2023-04-02T06:02:23.464Z,23.47
2023-04-02T06:04:58.341Z,26.57
2023-04-02T06:07:38.470Z,22.20
2023-04-02T06:10:11.911Z,26.60
2023-04-02T06:12:46.915Z,27.70
2023-04-02T06:15:19.334Z,25.33
2023-04-02T06:17:53.449Z,25.97
2023-04-02T06:20:25.698Z,28.47
2023-04-02T06:22:59.162Z,22.13
2023-04-02T06:25:32.122Z,23.00
2023-04-02T06:28:07.359Z,19.47
2023-04-02T06:30:39.947Z,19.17
2023-04-02T06:33:13.956Z,23.33
2023-04-02T06:35:47.836Z,22.27
2023-04-02T06:38:28.835Z,21.63
2023-04-02T06:41:01.983Z,22.47
2023-04-02T06:43:59.694Z,20.73
2023-04-02T06:46:54.203Z,17.90
2023-04-02T06:49:27.554Z,22.60
2023-04-02T06:52:04.002Z,23.77
2023-04-02T06:54:33.687Z,20.87
2023-04-02T06:57:08.860Z,18.27
2023-04-02T06:59:45.840Z,20.47
2023-04-02T07:02:35.703Z,17.77
2023-04-02T07:05:09.590Z,21.77
2023-04-02T07:07:42.891Z,20.17
2023-04-02T07:10:14.393Z,17.03
2023-04-02T07:12:47.137Z,12.80
2023-04-02T07:15:24.635Z,16.07
2023-04-02T07:17:55.766Z,16.43
2023-04-02T07:20:31.064Z,14.93
2023-04-02T07:23:04.223Z,14.07
2023-04-02T07:25:33.568Z,11.47
2023-04-02T07:28:03.080Z,9.73
2023-04-02T07:30:34.422Z,9.37
2023-04-02T07:33:03.955Z,9.93
2023-04-02T07:35:33.017Z,9.73
2023-04-02T07:38:02.206Z,11.53
2023-04-02T07:40:31.563Z,8.67
2023-04-02T07:43:01.096Z,8.23
2023-04-02T07:45:30.153Z,8.23
2023-04-02T07:48:05.824Z,8.50
2023-04-02T07:50:35.235Z,8.97
2023-04-02T07:53:05.064Z,7.30
2023-04-02T07:55:34.672Z,8.50
2023-04-02T07:58:05.026Z,7.67
2023-04-02T08:00:34.185Z,7.70
2023-04-02T08:03:06.082Z,7.53
2023-04-02T08:05:35.365Z,8.00
2023-04-02T08:08:04.711Z,8.17
2023-04-02T08:10:34.154Z,7.80
2023-04-02T08:13:04.466Z,7.97
2023-04-02T08:15:33.745Z,10.03
2023-04-02T08:18:05.023Z,9.17
2023-04-02T08:20:34.749Z,8.27
2023-04-02T08:23:07.713Z,9.00
2023-04-02T08:25:37.204Z,7.70
2023-04-02T08:28:06.737Z,5.87
2023-04-02T08:30:36.491Z,7.60
2023-04-02T08:33:07.758Z,6.70
2023-04-02T08:35:37.396Z,6.37
2023-04-02T08:38:06.906Z,7.20
2023-04-02T08:40:39.987Z,6.53
2023-04-02T08:43:32.088Z,7.03
2023-04-02T08:46:10.002Z,6.37
2023-04-02T08:48:44.984Z,7.07
2023-04-02T08:51:24.971Z,7.80
2023-04-02T08:53:57.099Z,7.00
2023-04-02T08:56:32.742Z,4.43
2023-04-02T08:59:05.624Z,5.20
2023-04-02T09:01:42.136Z,4.97
2023-04-02T09:04:19.429Z,5.53
2023-04-02T09:06:50.349Z,6.10
2023-04-02T09:09:20.712Z,5.77
2023-04-02T09:11:55.829Z,4.67
2023-04-02T09:14:35.276Z,3.77
2023-04-02T09:17:05.770Z,6.23
2023-04-02T09:19:41.081Z,4.60
2023-04-02T09:22:18.656Z,6.20
2023-04-02T09:24:53.929Z,3.93
2023-04-02T09:27:26.762Z,6.40
2023-04-02T09:30:01.203Z,6.23
2023-04-02T09:32:47.145Z,6.07
2023-04-02T09:35:26.295Z,7.13
2023-04-02T09:38:21.529Z,5.33
2023-04-02T09:40:52.836Z,6.67
2023-04-02T09:43:24.548Z,8.93
2023-04-02T09:46:03.257Z,11.10
2023-04-02T09:48:35.514Z,12.60
2023-04-02T09:51:15.456Z,7.50
2023-04-02T09:53:46.280Z,5.93
2023-04-02T09:56:18.456Z,8.13
2023-04-02T09:59:03.096Z,9.67
2023-04-02T10:01:34.532Z,7.97
2023-04-02T10:04:06.576Z,7.17
2023-04-02T10:06:38.153Z,6.90
2023-04-02T10:09:23.670Z,6.67
2023-04-02T10:11:53.666Z,5.90
2023-04-02T10:14:28.706Z,5.33
2023-04-02T10:17:01.621Z,7.23
2023-04-02T10:19:36.424Z,6.37
2023-04-02T10:22:13.308Z,5.90
2023-04-02T10:24:42.754Z,6.47
2023-04-02T10:27:23.298Z,6.87
2023-04-02T10:30:07.476Z,7.03
2023-04-02T10:32:42.573Z,7.30
2023-04-02T10:35:22.203Z,8.63
2023-04-02T10:38:04.703Z,7.90
2023-04-02T10:40:37.976Z,6.87
2023-04-02T10:43:36.799Z,8.00
2023-04-02T10:46:11.486Z,6.40
2023-04-02T10:48:49.026Z,6.70
2023-04-02T10:51:34.368Z,7.53
2023-04-02T10:54:17.744Z,7.03
2023-04-02T10:56:51.383Z,5.47
2023-04-02T10:59:25.119Z,10.33
2023-04-02T11:01:57.256Z,5.90
2023-04-02T11:04:32.738Z,5.30
2023-04-02T11:07:14.053Z,5.67
2023-04-02T11:09:49.956Z,5.70
2023-04-02T11:12:26.350Z,4.17
2023-04-02T11:14:56.692Z,7.23
2023-04-02T11:17:26.798Z,5.17
2023-04-02T11:19:57.310Z,7.87
2023-04-02T11:22:27.935Z,3.90
2023-04-02T11:25:00.043Z,6.63
2023-04-02T11:27:31.051Z,6.50
2023-04-02T11:30:07.053Z,7.30
2023-04-02T11:32:42.942Z,5.37
2023-04-02T11:35:28.846Z,5.50
2023-04-02T11:38:00.080Z,6.87
2023-04-02T11:40:51.120Z,6.33
2023-04-02T11:43:50.400Z,5.87
2023-04-02T11:46:45.680Z,4.87
2023-04-02T11:49:40.736Z,5.97
2023-04-02T11:52:26.842Z,5.47
2023-04-02T11:55:23.370Z,6.57
2023-04-02T11:58:46.617Z,4.60
2023-04-02T12:01:44.733Z,4.43
2023-04-02T12:04:54.307Z,5.77
2023-04-02T12:07:56.587Z,5.23
2023-04-02T12:10:30.827Z,6.03
2023-04-02T12:13:00.594Z,3.87
2023-04-02T12:15:44.501Z,3.77
2023-04-02T12:18:22.678Z,7.20
2023-04-02T12:20:53.315Z,5.30
2023-04-02T12:23:26.208Z,7.30
2023-04-02T12:26:01.201Z,6.27
2023-04-02T12:28:31.751Z,7.67
2023-04-02T12:31:08.118Z,6.13
2023-04-02T12:33:40.968Z,8.00
2023-04-02T12:36:22.139Z,6.40
2023-04-02T12:38:53.525Z,6.77
2023-04-02T12:41:27.569Z,7.70
2023-04-02T12:44:01.055Z,7.60
2023-04-02T12:46:31.748Z,8.27
2023-04-02T12:49:07.774Z,10.13
2023-04-02T12:51:39.184Z,6.73
2023-04-02T12:54:09.361Z,7.23
2023-04-02T12:56:39.130Z,7.73
2023-04-02T12:59:25.469Z,7.73
2023-04-02T13:01:59.753Z,9.50
2023-04-02T13:04:30.612Z,7.13
2023-04-02T13:07:24.655Z,6.60
2023-04-02T13:10:37.500Z,6.17
2023-04-02T13:13:27.813Z,7.27
2023-04-02T13:16:44.795Z,8.47
2023-04-02T13:20:05.029Z,5.23
2023-04-02T13:22:35.188Z,8.53
2023-04-02T13:25:04.609Z,5.77
2023-04-02T13:27:48.559Z,7.33
2023-04-02T13:30:32.212Z,7.70
2023-04-02T13:33:01.296Z,6.77
2023-04-02T13:35:30.381Z,11.00
2023-04-02T13:38:03.279Z,6.90
2023-04-02T13:40:38.858Z,8.60
2023-04-02T13:43:10.396Z,8.30
2023-04-02T13:45:40.723Z,8.13
2023-04-02T13:48:18.739Z,10.50
2023-04-02T13:50:48.529Z,6.60
2023-04-02T13:53:24.070Z,9.33
2023-04-02T13:55:54.074Z,7.07
2023-04-02T13:58:23.370Z,6.53
2023-04-02T14:00:55.716Z,11.57
2023-04-02T14:03:25.251Z,6.83
2023-04-02T14:06:02.422Z,8.93
2023-04-02T14:08:45.952Z,6.47
2023-04-02T14:11:26.557Z,8.63
2023-04-02T14:14:14.920Z,6.60
2023-04-02T14:17:00.956Z,8.80
2023-04-02T14:19:46.228Z,7.73
2023-04-02T14:22:29.078Z,8.20
2023-04-02T14:25:09.760Z,9.07
2023-04-02T14:27:46.338Z,7.83
2023-04-02T14:30:22.591Z,10.27
2023-04-02T14:32:59.667Z,9.87
2023-04-02T14:35:33.472Z,8.87
2023-04-02T14:38:15.099Z,6.87
2023-04-02T14:40:51.973Z,9.17
2023-04-02T14:43:26.007Z,9.60
2023-04-02T14:46:01.396Z,10.33
2023-04-02T14:48:39.317Z,8.73
2023-04-02T14:51:16.717Z,9.23
2023-04-02T14:53:54.690Z,10.90
2023-04-02T14:56:27.259Z,10.53
2023-04-02T14:59:11.036Z,13.50
2023-04-02T15:01:47.567Z,14.87
2023-04-02T15:04:22.268Z,11.13
2023-04-02T15:06:54.985Z,8.97
2023-04-02T15:09:29.276Z,10.60
2023-04-02T15:12:05.731Z,10.63
2023-04-02T15:14:39.498Z,7.73
2023-04-02T15:17:11.814Z,11.10
2023-04-02T15:19:40.973Z,10.53
2023-04-02T15:22:30.798Z,11.27
2023-04-02T15:25:10.076Z,9.03
2023-04-02T15:27:59.362Z,8.93
2023-04-02T15:30:32.507Z,6.27
2023-04-02T15:33:32.714Z,8.33
2023-04-02T15:36:22.190Z,7.37
2023-04-02T15:39:04.122Z,9.67
2023-04-02T15:41:37.561Z,7.10
2023-04-02T15:44:11.846Z,8.27
2023-04-02T15:46:55.972Z,7.47
2023-04-02T15:49:44.396Z,7.93
2023-04-02T15:52:21.626Z,9.30
2023-04-02T15:55:03.915Z,7.60
2023-04-02T15:57:51.588Z,9.90
2023-04-02T16:00:31.246Z,11.43
2023-04-02T16:03:27.208Z,7.80
2023-04-02T16:06:19.494Z,8.63
2023-04-02T16:09:04.977Z,7.53
2023-04-02T16:11:35.578Z,5.87
2023-04-02T16:14:19.206Z,6.87
2023-04-02T16:16:52.924Z,10.37
2023-04-02T16:19:30.125Z,8.23
2023-04-02T16:22:06.102Z,6.07
2023-04-02T16:24:36.051Z,9.77
2023-04-02T16:27:19.256Z,6.50
2023-04-02T16:30:38.003Z,6.53
2023-04-02T16:33:29.655Z,9.33
2023-04-02T16:36:12.012Z,5.90
2023-04-02T16:38:55.077Z,6.23
2023-04-02T16:41:32.327Z,7.00
2023-04-02T16:44:13.940Z,4.07
2023-04-02T16:46:54.241Z,7.07
2023-04-02T16:49:33.440Z,8.37
2023-04-02T16:52:21.806Z,7.50
2023-04-02T16:55:02.159Z,6.47
2023-04-02T16:57:39.117Z,7.27
2023-04-02T17:00:19.322Z,7.23
2023-04-02T17:02:59.289Z,9.03
2023-04-02T17:05:36.413Z,6.87
2023-04-02T17:08:18.365Z,10.63
2023-04-02T17:10:53.313Z,9.30
2023-04-02T17:13:30.310Z,6.70
2023-04-02T17:16:08.680Z,7.80
2023-04-02T17:18:38.218Z,7.10
2023-04-02T17:21:13.946Z,9.80
2023-04-02T17:23:55.882Z,8.10
2023-04-02T17:26:28.411Z,8.47
2023-04-02T17:29:00.166Z,8.97
2023-04-02T17:31:34.375Z,10.10
2023-04-02T17:34:12.156Z,14.87
2023-04-02T17:36:53.282Z,8.57
2023-04-02T17:39:29.000Z,8.80
2023-04-02T17:42:07.574Z,9.20
2023-04-02T17:45:01.017Z,8.50
2023-04-02T17:47:38.207Z,11.40
2023-04-02T17:50:46.675Z,8.70
2023-04-02T17:53:29.701Z,8.23
2023-04-02T17:56:12.307Z,10.10
2023-04-02T17:59:00.662Z,8.80
2023-04-02T18:01:35.695Z,10.73
2023-04-02T18:04:15.652Z,10.70
2023-04-02T18:06:55.733Z,8.27
2023-04-02T18:09:45.695Z,8.37
2023-04-02T18:12:35.004Z,7.23
2023-04-02T18:15:14.127Z,5.53
2023-04-02T18:17:49.713Z,7.60
2023-04-02T18:20:30.786Z,5.17
2023-04-02T18:23:08.098Z,6.10
2023-04-02T18:25:58.963Z,5.47
2023-04-02T18:28:41.244Z,5.20
2023-04-02T18:31:19.712Z,3.70
2023-04-02T18:34:22.447Z,4.53
2023-04-02T18:37:04.687Z,2.80
2023-04-02T18:39:43.232Z,7.03
2023-04-02T18:42:21.498Z,5.77
2023-04-02T18:45:00.346Z,3.67
2023-04-02T18:47:38.112Z,4.90
2023-04-02T18:50:18.415Z,3.63
2023-04-02T18:52:49.063Z,3.33
2023-04-02T18:55:21.305Z,5.00
2023-04-02T18:57:59.709Z,4.57
2023-04-02T19:00:35.411Z,6.53
2023-04-02T19:03:09.331Z,7.43
2023-04-02T19:05:44.917Z,6.10
2023-04-02T19:08:21.283Z,6.93
2023-04-02T19:10:55.204Z,5.60
2023-04-02T19:13:29.327Z,5.00
2023-04-02T19:16:15.299Z,4.33
2023-04-02T19:18:54.570Z,6.23
2023-04-02T19:21:33.813Z,5.33
2023-04-02T19:24:18.606Z,4.23
2023-04-02T19:26:57.836Z,7.73
2023-04-02T19:29:40.841Z,5.33
2023-04-02T19:32:21.814Z,6.90
2023-04-02T19:34:59.975Z,6.40
2023-04-02T19:37:38.476Z,7.40
2023-04-02T19:40:29.521Z,5.80
2023-04-02T19:42:58.701Z,5.93
2023-04-02T19:45:39.421Z,6.40
2023-04-02T19:48:15.470Z,7.47
2023-04-02T19:50:45.697Z,7.07
2023-04-02T19:53:15.538Z,7.00
2023-04-02T19:55:46.194Z,8.00
2023-04-02T19:58:27.873Z,4.77
2023-04-02T20:00:59.711Z,6.10
2023-04-02T20:03:29.096Z,11.60
2023-04-02T20:06:00.346Z,5.50
2023-04-02T20:08:30.381Z,6.33
2023-04-02T20:11:00.801Z,3.10
2023-04-02T20:13:30.318Z,6.50
2023-04-02T20:16:03.740Z,7.17
2023-04-02T20:18:33.533Z,3.97
2023-04-02T20:21:06.620Z,6.70
2023-04-02T20:23:36.885Z,4.27
2023-04-02T20:26:13.328Z,4.73
2023-04-02T20:28:43.221Z,4.80
2023-04-02T20:31:16.619Z,4.40
2023-04-02T20:33:47.096Z,3.90
2023-04-02T20:36:19.183Z,3.33
2023-04-02T20:38:49.201Z,4.43
2023-04-02T20:41:18.882Z,3.27
2023-04-02T20:43:48.289Z,3.47
2023-04-02T20:46:19.325Z,5.37
2023-04-02T20:48:48.747Z,5.97
2023-04-02T20:51:18.218Z,5.13
2023-04-02T20:53:48.350Z,4.63
2023-04-02T20:56:19.821Z,6.43
2023-04-02T20:58:49.299Z,3.70
2023-04-02T21:01:22.430Z,4.43
2023-04-02T21:03:54.901Z,4.73
2023-04-02T21:06:26.675Z,7.03
2023-04-02T21:08:56.301Z,6.60
2023-04-02T21:11:26.552Z,9.00
2023-04-02T21:13:56.235Z,7.43
2023-04-02T21:16:30.041Z,7.73
2023-04-02T21:19:00.941Z,4.37
2023-04-02T21:21:30.845Z,5.00
2023-04-02T21:24:02.597Z,5.67
2023-04-02T21:26:34.662Z,4.70
2023-04-02T21:29:04.649Z,4.63
2023-04-02T21:31:37.696Z,6.73
2023-04-02T21:34:08.176Z,8.57
2023-04-02T21:36:39.255Z,9.13
2023-04-02T21:39:10.273Z,7.43
2023-04-02T21:41:41.377Z,6.13
2023-04-02T21:44:14.046Z,6.20
2023-04-02T21:46:46.424Z,5.23
2023-04-02T21:49:20.470Z,7.33
2023-04-02T21:51:52.195Z,7.80
2023-04-02T21:54:21.667Z,5.47
2023-04-02T21:56:52.059Z,5.80
2023-04-02T21:59:21.998Z,6.67
2023-04-02T22:01:53.782Z,6.77
2023-04-02T22:04:25.581Z,7.17
2023-04-02T22:06:55.516Z,4.37
2023-04-02T22:09:27.177Z,8.83
2023-04-02T22:12:00.395Z,8.47
2023-04-02T22:14:30.176Z,5.83
2023-04-02T22:17:00.975Z,6.10
2023-04-02T22:19:30.273Z,8.93
2023-04-02T22:21:59.438Z,11.43
2023-04-02T22:24:28.788Z,7.00
2023-04-02T22:26:57.813Z,9.77
2023-04-02T22:29:27.338Z,9.43
2023-04-02T22:31:56.522Z,14.83
2023-04-02T22:34:27.308Z,7.73
2023-04-02T22:36:56.429Z,6.20
2023-04-02T22:39:25.948Z,5.63
2023-04-02T22:41:55.536Z,6.03
2023-04-02T22:44:24.479Z,7.47
2023-04-02T22:46:54.017Z,6.43
2023-04-02T22:49:24.273Z,5.43
2023-04-02T22:51:55.037Z,8.03
2023-04-02T22:54:24.433Z,5.30
2023-04-02T22:56:53.582Z,6.17
2023-04-02T22:59:22.572Z,6.07
2023-04-02T23:01:51.594Z,8.20
2023-04-02T23:04:21.468Z,6.80
2023-04-02T23:06:50.727Z,7.07
2023-04-02T23:09:21.796Z,6.80
2023-04-02T23:11:50.825Z,7.67
2023-04-02T23:14:20.166Z,8.70
2023-04-02T23:16:49.344Z,8.87
2023-04-02T23:19:18.247Z,5.80
2023-04-02T23:21:47.821Z,6.27
2023-04-02T23:24:17.579Z,8.73
2023-04-02T23:26:48.426Z,8.87
2023-04-02T23:29:18.061Z,7.37
2023-04-02T23:31:47.497Z,10.10
2023-04-02T23:34:16.976Z,4.03
2023-04-02T23:36:46.107Z,5.13
2023-04-02T23:39:16.509Z,9.90
2023-04-02T23:41:45.260Z,7.50
2023-04-02T23:44:15.998Z,5.47
2023-04-02T23:46:45.258Z,7.53
2023-04-02T23:49:14.628Z,6.17
2023-04-02T23:51:43.759Z,7.47
2023-04-02T23:54:13.579Z,4.27
2023-04-02T23:56:43.545Z,5.93
2023-04-02T23:59:12.286Z,5.20
